createdAt,value
2023-02-17T00:01:10.469Z,6.78
2023-02-17T00:04:14.234Z,6.20
2023-02-17T00:07:17.856Z,5.63
2023-02-17T00:10:21.531Z,5.30
2023-02-17T00:13:26.912Z,6.10
2023-02-17T00:16:30.887Z,5.57
2023-02-17T00:19:42.082Z,5.70
2023-02-17T00:22:48.153Z,5.60
2023-02-17T00:26:05.593Z,5.60
2023-02-17T00:29:10.896Z,5.80
2023-02-17T00:32:21.014Z,6.15
2023-02-17T00:35:36.055Z,5.85
2023-02-17T00:38:42.588Z,5.00
2023-02-17T00:41:51.194Z,5.65
2023-02-17T00:44:56.457Z,6.13
2023-02-17T00:48:11.077Z,5.55
2023-02-17T00:51:18.675Z,5.35
2023-02-17T00:54:24.416Z,5.57
2023-02-17T00:57:49.674Z,5.57
2023-02-17T01:00:58.799Z,5.45
2023-02-17T01:04:07.025Z,5.95
2023-02-17T01:07:16.373Z,5.65
2023-02-17T01:10:25.777Z,5.65
2023-02-17T01:13:35.355Z,5.68
2023-02-17T01:16:42.504Z,5.72
2023-02-17T01:19:53.576Z,4.93
2023-02-17T01:23:04.633Z,5.55
2023-02-17T01:26:28.537Z,5.05
2023-02-17T01:29:38.224Z,4.75
2023-02-17T01:32:45.379Z,5.50
2023-02-17T01:35:54.926Z,5.38
2023-02-17T01:39:07.326Z,5.60
2023-02-17T01:42:44.878Z,5.30
2023-02-17T01:49:33.840Z,5.43
2023-02-17T01:53:04.149Z,5.45
2023-02-17T01:56:11.181Z,6.00
2023-02-17T01:59:24.822Z,5.53
2023-02-17T02:02:32.215Z,4.97
2023-02-17T02:05:46.056Z,4.93
2023-02-17T02:08:54.674Z,5.47
2023-02-17T02:12:00.006Z,5.53
2023-02-17T02:15:28.610Z,5.47
2023-02-17T02:18:44.686Z,5.22
2023-02-17T02:22:12.231Z,5.13
2023-02-17T02:25:23.620Z,5.20
2023-02-17T02:28:36.325Z,5.55
2023-02-17T02:31:45.843Z,5.22
2023-02-17T02:34:56.922Z,5.00
2023-02-17T02:38:17.060Z,5.88
2023-02-17T02:41:35.820Z,5.18
2023-02-17T02:45:13.600Z,5.32
2023-02-17T02:48:17.273Z,4.82
2023-02-17T02:51:38.408Z,5.32
2023-02-17T02:55:16.639Z,5.00
2023-02-17T02:58:27.521Z,5.50
2023-02-17T03:01:40.676Z,4.68
2023-02-17T03:04:47.910Z,4.90
2023-02-17T03:07:55.303Z,5.07
2023-02-17T03:11:07.561Z,4.78
2023-02-17T03:14:16.058Z,4.53
2023-02-17T03:17:26.556Z,4.60
2023-02-17T03:20:34.208Z,4.53
2023-02-17T03:23:39.152Z,4.72
2023-02-17T03:26:43.341Z,4.13
2023-02-17T03:29:46.966Z,4.20
2023-02-17T03:32:50.645Z,4.22
2023-02-17T03:35:55.074Z,3.90
2023-02-17T03:39:05.683Z,4.82
2023-02-17T03:42:15.023Z,3.78
2023-02-17T03:45:18.588Z,4.22
2023-02-17T03:48:22.267Z,3.75
2023-02-17T03:51:26.581Z,3.90
2023-02-17T03:54:32.725Z,4.22
2023-02-17T04:01:33.425Z,3.63
2023-02-17T04:04:37.793Z,3.70
2023-02-17T04:07:44.411Z,3.72
2023-02-17T04:10:52.817Z,3.63
2023-02-17T04:13:56.315Z,3.65
2023-02-17T04:17:00.850Z,3.50
2023-02-17T04:20:04.710Z,3.35
2023-02-17T04:23:08.231Z,3.60
2023-02-17T04:26:15.204Z,3.08
2023-02-17T04:29:21.126Z,2.70
2023-02-17T04:32:37.440Z,3.25
2023-02-17T04:35:46.983Z,3.55
2023-02-17T04:39:04.392Z,3.63
2023-02-17T04:42:09.614Z,3.42
2023-02-17T04:45:20.468Z,3.03
2023-02-17T04:48:32.139Z,3.80
2023-02-17T04:51:35.641Z,2.90
2023-02-17T04:54:39.271Z,3.88
2023-02-17T04:57:51.301Z,3.08
2023-02-17T05:00:54.925Z,3.22
2023-02-17T05:04:00.283Z,3.65
2023-02-17T05:07:06.687Z,3.53
2023-02-17T05:10:11.209Z,3.47
2023-02-17T05:13:37.048Z,3.13
2023-02-17T05:16:57.388Z,3.60
2023-02-17T05:20:11.504Z,3.70
2023-02-17T05:23:29.151Z,3.42
2023-02-17T05:29:45.001Z,3.75
2023-02-17T05:32:49.703Z,3.35
2023-02-17T05:36:10.524Z,3.72
2023-02-17T05:43:35.945Z,3.47
2023-02-17T05:47:07.808Z,3.75
2023-02-17T05:50:13.198Z,3.92
2023-02-17T05:53:17.010Z,3.63
2023-02-17T05:56:20.538Z,3.60
2023-02-17T05:59:23.858Z,4.00
2023-02-17T06:02:27.392Z,4.13
2023-02-17T06:05:32.386Z,4.57
2023-02-17T06:08:35.804Z,4.60
2023-02-17T06:11:39.201Z,4.57
2023-02-17T06:14:42.736Z,4.70
2023-02-17T06:17:46.394Z,4.63
2023-02-17T06:20:51.467Z,4.88
2023-02-17T06:23:54.847Z,4.72
2023-02-17T06:26:58.566Z,5.25
2023-02-17T06:30:02.126Z,4.90
2023-02-17T06:33:05.901Z,5.32
2023-02-17T06:36:11.040Z,5.75
2023-02-17T06:39:14.428Z,5.90
2023-02-17T06:42:17.807Z,5.97
2023-02-17T06:45:21.117Z,6.28
2023-02-17T06:48:24.495Z,5.13
2023-02-17T06:51:29.370Z,5.05
2023-02-17T06:54:33.414Z,5.68
2023-02-17T06:57:36.966Z,5.72
2023-02-17T07:00:40.369Z,5.32
2023-02-17T07:03:43.879Z,6.15
2023-02-17T07:06:49.152Z,5.60
2023-02-17T07:09:52.608Z,6.00
2023-02-17T07:12:56.088Z,5.72
2023-02-17T07:15:59.548Z,5.63
2023-02-17T07:19:03.089Z,4.93
2023-02-17T07:22:08.110Z,5.22
2023-02-17T07:25:12.131Z,6.53
2023-02-17T07:28:16.164Z,5.82
2023-02-17T07:31:38.341Z,6.15
2023-02-17T07:34:50.737Z,6.18
2023-02-17T07:38:07.560Z,5.85
2023-02-17T07:41:20.973Z,7.30
2023-02-17T07:44:24.511Z,6.13
2023-02-17T07:47:28.195Z,6.30
2023-02-17T07:50:37.773Z,7.20
2023-02-17T07:53:42.863Z,7.28
2023-02-17T07:56:48.432Z,7.82
2023-02-17T07:59:52.024Z,7.57
2023-02-17T08:02:55.448Z,7.07
2023-02-17T08:05:59.053Z,7.32
2023-02-17T08:09:21.435Z,6.95
2023-02-17T08:34:58.521Z,6.80
2023-02-17T08:38:13.506Z,7.35
2023-02-17T08:41:16.909Z,6.63
2023-02-17T08:49:02.942Z,6.32
2023-02-17T08:56:15.773Z,5.38
2023-02-17T08:59:19.131Z,5.78
2023-02-17T09:02:22.982Z,5.18
2023-02-17T09:05:26.762Z,4.47
2023-02-17T09:08:30.436Z,5.28
2023-02-17T09:11:37.126Z,4.78
2023-02-17T09:14:44.333Z,5.28
2023-02-17T09:22:32.062Z,5.05
2023-02-17T09:26:01.203Z,4.25
2023-02-17T09:29:09.096Z,3.92
2023-02-17T09:32:15.054Z,4.20
2023-02-17T09:35:19.949Z,3.97
2023-02-17T09:38:24.494Z,4.07
2023-02-17T09:41:55.523Z,4.47
2023-02-17T09:48:58.230Z,3.80
2023-02-17T09:52:04.217Z,4.05
2023-02-17T10:11:56.104Z,3.88
2023-02-17T10:15:30.876Z,3.38
2023-02-17T10:18:39.030Z,3.28
2023-02-17T10:26:26.781Z,3.45
2023-02-17T10:35:17.459Z,3.55
2023-02-17T10:38:31.845Z,3.30
2023-02-17T10:41:39.336Z,3.70
2023-02-17T10:44:50.076Z,3.45
2023-02-17T10:48:30.324Z,3.00
2023-02-17T10:51:35.097Z,3.92
2023-02-17T11:00:13.133Z,3.47
2023-02-17T11:03:32.317Z,4.28
2023-02-17T11:07:25.487Z,3.92
2023-02-17T11:14:04.525Z,3.97
2023-02-17T11:17:33.048Z,3.45
2023-02-17T11:26:06.828Z,4.13
2023-02-17T11:29:45.030Z,5.00
2023-02-17T11:32:50.340Z,4.68
2023-02-17T11:36:06.424Z,4.45
2023-02-17T11:39:20.180Z,4.30
2023-02-17T11:42:23.899Z,4.68
2023-02-17T11:46:20.313Z,4.57
2023-02-17T11:49:38.015Z,4.38
2023-02-17T11:52:58.969Z,4.72
2023-02-17T11:56:07.297Z,4.15
2023-02-17T11:59:27.351Z,4.47
2023-02-17T12:02:39.563Z,4.90
2023-02-17T12:06:09.218Z,4.68
2023-02-17T12:09:58.316Z,4.80
2023-02-17T12:13:09.864Z,4.55
2023-02-17T12:16:23.016Z,4.93
2023-02-17T12:20:03.800Z,5.63
2023-02-17T12:23:13.948Z,4.13
2023-02-17T12:26:49.154Z,3.83
2023-02-17T12:30:01.386Z,4.20
2023-02-17T12:33:51.533Z,4.00
2023-02-17T12:37:33.361Z,3.53
2023-02-17T12:40:46.660Z,4.45
2023-02-17T12:43:51.934Z,4.07
2023-02-17T12:47:22.108Z,4.47
2023-02-17T12:50:27.933Z,4.22
2023-02-17T12:53:38.406Z,3.63
2023-02-17T12:56:54.132Z,4.03
2023-02-17T13:00:26.344Z,3.45
2023-02-17T13:03:36.448Z,3.30
2023-02-17T13:07:26.305Z,3.17
2023-02-17T13:19:10.242Z,2.25
2023-02-17T13:22:43.410Z,2.10
2023-02-17T13:25:59.371Z,2.58
2023-02-17T13:32:30.299Z,2.00
2023-02-17T13:36:02.215Z,2.33
2023-02-17T13:49:37.863Z,1.60
2023-02-17T13:52:44.780Z,1.25
2023-02-17T13:55:48.262Z,1.80
2023-02-17T13:59:18.157Z,1.52
2023-02-17T14:02:40.694Z,1.35
2023-02-17T14:05:44.968Z,2.38
2023-02-17T14:08:56.403Z,1.90
2023-02-17T14:12:01.272Z,1.42
2023-02-17T14:15:04.586Z,1.55
2023-02-17T14:18:14.331Z,1.60
2023-02-17T14:21:27.665Z,1.48
2023-02-17T14:24:33.855Z,2.08
2023-02-17T14:38:42.031Z,2.47
2023-02-17T14:41:46.699Z,2.45
2023-02-17T14:44:52.827Z,2.17
2023-02-17T14:47:57.142Z,1.98
2023-02-17T14:51:00.579Z,2.33
2023-02-17T14:54:04.363Z,1.55
2023-02-17T15:00:38.708Z,1.73
2023-02-17T15:03:43.668Z,1.13
2023-02-17T15:10:23.094Z,1.00
2023-02-17T15:14:01.813Z,1.33
2023-02-17T15:17:05.991Z,1.13
2023-02-17T15:20:10.598Z,1.70
2023-02-17T15:23:17.068Z,1.60
2023-02-17T15:26:24.329Z,1.20
2023-02-17T15:29:30.150Z,1.10
2023-02-17T15:32:33.566Z,1.20
2023-02-17T15:35:40.354Z,1.15
2023-02-17T15:38:43.956Z,1.10
2023-02-17T15:41:49.160Z,1.33
2023-02-17T15:44:56.111Z,1.35
2023-02-17T15:48:05.086Z,1.23
2023-02-17T15:51:14.946Z,1.42
2023-02-17T15:54:19.537Z,0.90
2023-02-17T15:57:24.708Z,1.23
2023-02-17T16:00:33.099Z,1.80
2023-02-17T16:03:36.497Z,1.63
2023-02-17T16:06:44.300Z,1.63
2023-02-17T16:09:48.565Z,1.40
2023-02-17T16:12:53.864Z,1.75
2023-02-17T16:16:00.179Z,2.20
2023-02-17T16:19:04.801Z,1.95
2023-02-17T16:22:08.334Z,2.45
2023-02-17T16:25:12.934Z,2.00
2023-02-17T16:28:18.183Z,1.73
2023-02-17T16:31:26.600Z,1.95
2023-02-17T16:34:34.779Z,1.88
2023-02-17T16:37:39.136Z,2.08
2023-02-17T16:40:47.230Z,2.13
2023-02-17T16:43:50.870Z,2.05
2023-02-17T16:46:56.265Z,1.85
2023-02-17T16:50:00.737Z,1.63
2023-02-17T16:53:12.168Z,1.42
2023-02-17T16:56:17.138Z,2.05
2023-02-17T16:59:24.439Z,2.20
2023-02-17T17:03:02.102Z,1.90
2023-02-17T17:06:20.263Z,1.83
2023-02-17T17:09:34.992Z,1.95
2023-02-17T17:12:38.574Z,1.38
2023-02-17T17:15:54.291Z,2.17
2023-02-17T17:19:09.957Z,1.95
2023-02-17T17:22:14.858Z,2.08
2023-02-17T17:25:18.749Z,2.40
2023-02-17T17:28:31.815Z,1.98
2023-02-17T17:31:36.081Z,2.40
2023-02-17T17:34:44.133Z,1.80
2023-02-17T17:38:36.107Z,2.05
2023-02-17T17:41:40.306Z,1.88
2023-02-17T17:44:46.312Z,1.98
2023-02-17T17:47:49.875Z,2.03
2023-02-17T17:50:55.525Z,2.05
2023-02-17T17:53:59.286Z,2.67
2023-02-17T17:57:02.818Z,2.20
2023-02-17T18:00:18.851Z,1.67
2023-02-17T18:03:22.554Z,1.88
2023-02-17T18:06:28.694Z,2.20
2023-02-17T18:09:53.922Z,2.05
2023-02-17T18:12:57.828Z,0.93
2023-02-17T18:16:02.176Z,1.90
2023-02-17T18:19:07.911Z,1.80
2023-02-17T18:22:15.488Z,1.75
2023-02-17T18:25:24.484Z,1.88
2023-02-17T18:28:28.144Z,1.77
2023-02-17T18:31:31.761Z,1.50
2023-02-17T18:34:35.448Z,2.55
2023-02-17T18:37:40.961Z,1.77
2023-02-17T18:40:44.415Z,2.22
2023-02-17T18:43:48.136Z,1.90
2023-02-17T18:46:51.584Z,1.05
2023-02-17T18:49:55.013Z,2.35
2023-02-17T18:52:59.749Z,2.38
2023-02-17T18:56:03.421Z,1.63
2023-02-17T18:59:07.796Z,1.83
2023-02-17T19:02:14.799Z,1.73
2023-02-17T19:05:18.415Z,1.58
2023-02-17T19:08:23.082Z,2.58
2023-02-17T19:11:26.797Z,2.47
2023-02-17T19:14:32.441Z,2.38
2023-02-17T19:21:53.008Z,2.38
2023-02-17T19:24:57.731Z,1.90
2023-02-17T19:28:01.131Z,2.08
2023-02-17T19:31:07.141Z,1.85
2023-02-17T19:34:12.592Z,1.83
2023-02-17T19:37:24.203Z,1.70
2023-02-17T19:40:30.075Z,2.80
2023-02-17T19:43:34.168Z,2.42
2023-02-17T19:46:37.667Z,1.63
2023-02-17T19:49:41.774Z,2.25
2023-02-17T19:52:45.316Z,2.42
2023-02-17T19:55:49.940Z,1.85
2023-02-17T19:58:54.093Z,1.88
2023-02-17T20:01:57.957Z,2.70
2023-02-17T20:05:01.738Z,1.48
2023-02-17T20:13:34.685Z,1.48
2023-02-17T20:16:43.948Z,1.55
2023-02-17T20:19:50.161Z,1.63
2023-02-17T20:23:22.346Z,2.67
2023-02-17T20:30:32.093Z,1.73
2023-02-17T20:33:37.232Z,1.90
2023-02-17T20:36:41.256Z,1.60
2023-02-17T20:39:45.019Z,1.88
2023-02-17T20:42:48.671Z,1.95
2023-02-17T20:45:54.064Z,2.35
2023-02-17T20:49:20.425Z,2.17
2023-02-17T20:52:24.345Z,1.95
2023-02-17T20:55:28.549Z,2.30
2023-02-17T20:58:31.892Z,2.70
2023-02-17T21:01:36.636Z,2.33
2023-02-17T21:04:39.903Z,1.88
2023-02-17T21:07:43.214Z,1.38
2023-02-17T21:10:46.597Z,1.60
2023-02-17T21:13:50.257Z,1.73
2023-02-17T21:16:55.017Z,1.60
2023-02-17T21:19:59.022Z,2.05
2023-02-17T21:23:04.154Z,1.95
2023-02-17T21:26:10.236Z,2.08
2023-02-17T21:29:14.057Z,2.22
2023-02-17T21:32:19.777Z,1.63
2023-02-17T21:35:23.396Z,1.40
2023-02-17T21:38:26.735Z,2.45
2023-02-17T21:41:32.340Z,1.70
2023-02-17T21:44:49.770Z,1.20
2023-02-17T21:47:54.808Z,2.17
2023-02-17T21:51:04.836Z,2.20
2023-02-17T21:54:09.307Z,1.35
2023-02-17T21:57:12.754Z,1.65
2023-02-17T22:00:23.282Z,1.38
2023-02-17T22:03:28.913Z,2.13
2023-02-17T22:06:33.601Z,2.30
2023-02-17T22:09:36.873Z,1.30
2023-02-17T22:12:40.221Z,1.95
2023-02-17T22:15:44.984Z,2.35
2023-02-17T22:18:53.308Z,1.45
2023-02-17T22:21:57.201Z,1.83
2023-02-17T22:25:04.820Z,1.80
2023-02-17T22:28:19.502Z,1.83
2023-02-17T22:31:26.778Z,1.83
2023-02-17T22:34:32.008Z,1.40
2023-02-17T22:37:35.453Z,1.58
2023-02-17T22:40:40.767Z,2.20
2023-02-17T22:43:44.969Z,2.10
2023-02-17T22:46:49.379Z,1.48
2023-02-17T22:50:21.355Z,2.33
2023-02-17T22:53:29.461Z,1.60
2023-02-17T22:56:33.686Z,1.73
2023-02-17T22:59:37.180Z,1.50
2023-02-17T23:02:41.303Z,1.83
2023-02-17T23:05:45.316Z,1.60
2023-02-17T23:08:51.613Z,2.38
2023-02-17T23:11:58.892Z,1.27
2023-02-17T23:15:06.384Z,2.53
2023-02-17T23:18:10.097Z,2.17
2023-02-17T23:21:15.020Z,1.58
2023-02-17T23:24:22.281Z,2.45
2023-02-17T23:27:27.824Z,1.65
2023-02-17T23:30:32.409Z,1.88
2023-02-17T23:33:35.808Z,1.85
2023-02-17T23:36:40.025Z,2.00
2023-02-17T23:39:44.744Z,1.50
2023-02-17T23:42:48.255Z,1.45
2023-02-17T23:45:51.781Z,1.98
2023-02-17T23:48:55.966Z,1.45
2023-02-17T23:51:59.383Z,1.85
2023-02-17T23:55:05.851Z,1.92
2023-02-17T23:58:11.291Z,1.63
